Terminal Aerodrome Forecast
Issued by NWS

Home | Current Version | Previous Version | Text Only | Print | Product List | Glossary Off
Versions: 1 2 3 4 5 6 7 8 9 10 11 12 13 14 15 16 17 18 19

000
FTUS43 KMPX 281100
TAFRWF
TAF
KRWF 281120Z 2812/2912 13005KT P6SM FEW030 BKN090
     FM281400 12008KT 6SM -SHRA BKN025 OVC150
      TEMPO 2814/2816 SCT025 OVC070
     FM281600 13009G14KT 6SM -SHRA BKN014 OVC040
      TEMPO 2818/2820 OVC009
     FM290200 13005KT 5SM BR VCSH OVC007
     FM290700 12008KT 3SM BR BKN004 OVC009=

USA.gov is the U.S. government's official web portal to all federal, state and local government web resources and services.